メインページ
METAR-TAF:

METAR-TAF

空港 :

キングストン, ジャマイカ

ノーマン・マンレー国際空港

緯度: 17-56N, 経度: 076-47W, 海抜: 3m

現時点の気象観測

当レポートは56分前の11:00(UTC)に作成
南東の風 14kt
気温 25°C
湿度 89%
気圧 1012 hPa
視程10km以上
高度700ftの雲はほとんどない
高度1400ftの千切れ雲あり
高度3000ftの千切れ雲あり
弱いにわか雨

METAR: MKJP 231100Z 13014KT 9999 -SHRA FEW007 BKN014 BKN030 25/23 Q1012

時間: 06:56 (11:56 UTC)

予報

当レポートは41分前の11:15(UTC)に作成
予報は23日の 12時(UTC)から 24日の 12時(UTC)まで有効
南東の風 10kt
視程10km以上
高度1800ftの千切れ雲あり
高度3000ftの千切れ雲あり
23日の 12時(UTC)から 23日の 16時(UTC)まで一時的に
視程: 5000m
高度1600ftの千切れ雲あり
高度2000ftの雲は散在している, 積乱雲.
高度3000ftの千切れ雲あり
激しい雷雨, 雨
23日の 14時(UTC)から 23日の 16時(UTC)まで徐々に
南東の風 20kt
23日の 19時(UTC)から 23日の 24時(UTC)まで一時的に
視程: 6000m
高度1800ftの千切れ雲あり
高度2000ftの雲はほとんどない, 積乱雲.
高度3000ftの千切れ雲あり
にわか雨
24日の 00時(UTC)から 24日の 02時(UTC)まで徐々に
東/南東の風 10kt

TAF: MKJP 231115Z 2312/2412 13010KT 9999 BKN018 BKN030 TEMPO 2312/2316 5000 TSRA BKN016 SCT020CB BKN030 BECMG 2314/2316 13020KT TEMPO 2319/2324 6000 SHRA BKN018 FEW020CB BKN030 BECMG 2400/2402 12010KT

4,000以上の空港の気象観測と天気予報(METAR報とTAF報)

利用可能な観測所は地図上に黄色い丸と赤い丸で示す。

丸の上にカーソルを重ねると観測所名を参照できる。

次にクリックすると気象観測と天気予報を参照できる。

マップの切り替え:黒色「×」印の緑ボタンをクリックして拡大、「-」印の緑ボタンをクリックして縮小、緑色の三角印をクリックして隣りの地図に切り替え


METAR-TAF: